Ownership Profile

Shareholder Breakdown
Shareholder Holders Values ($) % O/S Shares
Institution 164 711 96.26 18,370,861
Mutual Fund 202 137 18.41 3,514,185
Institutional Shareholder Rotation
Shareholder Holders Values Change ($) % O/S Shares Change
Buyers 56 26.55 3.60 687,051
Sellers 104 -34.04 4.63 -884,005
Net -- -7.49 1.03 -196,954
Institutional Shareholder Concentration
Shareholder Values ($) % O/S Shares
Top 10 Inst. 616 83.57 15,948,283
Top 20 Inst. 661.93 89.68 17,114,203
Top 50 Inst. 697.20 94.44 18,022,607
Total Inst. 697.20 94.44 18,022,607
Institutional Shareholder Style
Shareholder Holders Values ($) % O/S Shares
Index 25 77 10.47 1,997,695
AggresGr 2 3 0.35 66,192
CoreGrowth 29 75 10.24 1,954,722
Growth 6 13 1.75 333,346
IncomeValue 4 7 0.99 189,845
Yield 2 1 0.07 12,831
BrokerDealer 12 5 0.63 120,877
GARP 13 15 2.06 392,954
HedgeFund 11 471 63.93 12,200,391
Specialty 1 0 0.03 6,213
CoreValue 13 11 1.33 253,335
DeepValue 8 28 3.75 715,906
Momentum 1 0 0.00 357
Top Holders: Institutional Investor
Holder Shares Held % O/S Shares Change Filing Date
Icahn Associates Corporation 11,871,268 62.21 0 09/30/2017
Dimensional Fund Advisors, L.P. 1,369,085 7.17 -13,624 09/30/2017
The Vanguard Group, Inc. 664,935 3.48 -48,726 09/30/2017
LSV Asset Management 458,219 2.40 -3,400 09/30/2017
BlackRock Institutional Trust Company, N.A. 439,840 2.30 9,505 09/30/2017
GCA Investment Management 305,559 1.60 305,559 09/30/2017
Royce & Associates, LP 216,953 1.14 -9,159 09/30/2017
Northern Trust Investments, Inc. 214,350 1.12 -705 09/30/2017
Kennedy Capital Management, Inc. 209,020 1.10 129,029 09/30/2017
State Street Global Advisors (US) 199,054 1.04 448 09/30/2017
Norges Bank Investment Management (NBIM) 197,902 1.04 0 12/31/2016
Mellon Capital Management Corporation 168,931 0.89 -351 09/30/2017
Northern Trust Global Investments 133,166 0.70 57,916 09/30/2017
First Trust Advisors L.P. 124,690 0.65 603 09/30/2017
Renaissance Technologies LLC 100,723 0.53 -15,877 09/30/2017
Deutsche Asset Management Americas 97,776 0.51 9,848 09/30/2017
Citadel LLC 93,637 0.49 1,971 09/30/2017
Millennium Management LLC 89,774 0.47 -29,767 09/30/2017
Allianz Global Investors U.S. LLC 79,862 0.42 -6,250 09/30/2017
Allianz Global Investors GmbH 79,459 0.42 -9,756 09/30/2017
Geode Capital Management, L.L.C. 76,531 0.40 1,722 09/30/2017
California Public Employees' Retirement System 74,243 0.39 5,043 09/30/2017
AFAM Capital, Inc. 60,320 0.32 -3,746 09/30/2017
Mackenzie Financial Corporation 58,728 0.31 0 09/30/2017
Bridgeway Capital Management, Inc. 56,900 0.30 20,000 09/30/2017
Horizon Kinetics LLC 40,772 0.21 -56 09/30/2017
Bank of America Merrill Lynch (US) 38,201 0.20 -52,197 09/30/2017
Morgan Stanley Wealth Management 37,467 0.20 -14,765 09/30/2017
Charles Schwab Investment Management, Inc. 31,918 0.17 1,411 09/30/2017
Nuveen LLC 29,528 0.15 -4,759 09/30/2017
Horrell Capital Management, Inc. 28,070 0.15 129 09/30/2017
BlackRock Investment Management, LLC 27,495 0.14 -1,194 09/30/2017
Guggenheim Investments 26,024 0.14 -24 09/30/2017
Invesco PowerShares Capital Management LLC 25,925 0.14 -26 09/30/2017
Golden (Gail) 23,800 0.12 23,800 04/27/2017
KBC Fund Management Limited 23,496 0.12 -12,057 02/29/2016
Two Sigma Investments, LP 22,713 0.12 -9,600 09/30/2017
BNY Mellon Asset Management 22,176 0.12 -1,934 09/30/2017
Granahan Investment Management, Inc. 21,902 0.11 0 09/30/2016
Morgan Stanley & Co. LLC 20,237 0.11 13 09/30/2017
AMG National Trust Bank 19,483 0.10 19,483 09/30/2017
LPL Financial LLC 19,098 0.10 -31,213 09/30/2017
Putnam Investment Management, L.L.C. 17,801 0.09 17,801 09/30/2017
Rhumbline Advisers Ltd. Partnership 17,395 0.09 40 09/30/2017
AHL Partners LLP 17,020 0.09 17,020 09/30/2017
Victory Capital Management Inc. 16,611 0.09 3,624 09/30/2017
Schweizerische Nationalbank 14,400 0.08 0 09/30/2017
Aperio Group, LLC 13,744 0.07 -938 09/30/2017
Wellington Management Company, LLP 13,215 0.07 -4,000 09/30/2017
Parametric Portfolio Associates LLC 13,191 0.07 -222 09/30/2017

Ownership data is provided by Thomson Reuters, a third party service, and American Railcar Industries, Inc. does not maintain or provide information directly to this service.